createdAt,value
2019-05-11T00:01:50.072Z,89.83
2019-05-11T00:06:51.603Z,89.65
2019-05-11T00:11:53.174Z,89.53
2019-05-11T00:16:54.758Z,87.61
2019-05-11T00:21:56.245Z,87.57
2019-05-11T00:26:57.770Z,89.40
2019-05-11T00:31:59.405Z,90.18
2019-05-11T00:37:00.866Z,90.33
2019-05-11T00:42:02.692Z,89.21
2019-05-11T00:47:04.517Z,90.86
2019-05-11T00:52:05.979Z,90.26
2019-05-11T00:57:07.616Z,90.06
2019-05-11T01:02:09.111Z,89.24
2019-05-11T01:07:10.577Z,89.37
2019-05-11T01:12:12.195Z,89.54
2019-05-11T01:17:13.787Z,90.04
2019-05-11T01:22:15.267Z,89.03
2019-05-11T01:27:16.754Z,88.97
2019-05-11T01:32:18.248Z,88.26
2019-05-11T01:37:19.776Z,87.83
2019-05-11T01:42:21.359Z,86.79
2019-05-11T01:47:22.990Z,86.66
2019-05-11T01:52:24.466Z,86.43
2019-05-11T01:57:26.093Z,85.46
2019-05-11T02:02:27.773Z,85.32
2019-05-11T02:07:29.245Z,85.32
2019-05-11T02:12:30.719Z,85.17
2019-05-11T02:17:32.258Z,84.16
2019-05-11T02:22:33.850Z,86.31
2019-05-11T02:27:35.344Z,86.28
2019-05-11T02:32:36.924Z,86.66
2019-05-11T02:37:38.503Z,87.63
2019-05-11T02:42:40.292Z,89.00
2019-05-11T02:47:42.115Z,88.06
2019-05-11T02:52:44.026Z,87.33
2019-05-11T02:57:45.542Z,88.47
2019-05-11T03:02:47.027Z,87.93
2019-05-11T03:07:48.529Z,87.81
2019-05-11T03:12:49.999Z,86.55
2019-05-11T03:17:51.528Z,86.13
2019-05-11T03:22:53.007Z,86.28
2019-05-11T03:27:54.591Z,89.07
2019-05-11T03:32:56.187Z,90.32
2019-05-11T03:37:57.735Z,89.95
2019-05-11T03:42:59.319Z,89.54
2019-05-11T03:48:00.848Z,89.10
2019-05-11T03:53:03.614Z,89.57
2019-05-11T03:58:05.251Z,88.96
2019-05-11T04:03:07.828Z,88.61
2019-05-11T04:08:09.501Z,88.76
2019-05-11T04:13:11.461Z,89.12
2019-05-11T04:18:13.004Z,88.27
2019-05-11T04:23:14.526Z,84.85
2019-05-11T04:28:17.100Z,89.47
2019-05-11T04:33:18.667Z,89.81
2019-05-11T04:38:20.215Z,88.86
2019-05-11T04:43:21.910Z,88.48
2019-05-11T04:48:23.909Z,88.20
2019-05-11T04:53:25.658Z,87.52
2019-05-11T04:58:27.170Z,87.85
2019-05-11T05:03:40.409Z,85.86
2019-05-11T05:08:32.179Z,86.82
2019-05-11T05:13:33.658Z,87.25
2019-05-11T05:18:35.176Z,88.24
2019-05-11T05:23:36.693Z,89.48
2019-05-11T05:28:38.287Z,87.89
2019-05-11T05:33:39.855Z,85.56
2019-05-11T05:38:41.347Z,84.67
2019-05-11T05:43:42.823Z,84.92
2019-05-11T05:48:44.294Z,81.76
2019-05-11T05:53:45.804Z,81.97
2019-05-11T05:58:47.328Z,78.92
2019-05-11T06:03:48.806Z,81.07
2019-05-11T06:08:50.282Z,79.82
2019-05-11T06:13:51.770Z,76.56
2019-05-11T06:18:53.234Z,75.64
2019-05-11T06:23:54.780Z,73.46
2019-05-11T06:28:56.250Z,72.28
2019-05-11T06:33:57.739Z,73.46
2019-05-11T06:38:59.205Z,69.17
2019-05-11T06:44:02.314Z,70.19
2019-05-11T06:49:04.290Z,67.70
2019-05-11T06:54:05.824Z,67.35
2019-05-11T06:59:07.446Z,68.94
2019-05-11T07:04:08.989Z,61.57
2019-05-11T07:09:10.497Z,66.36
2019-05-11T07:14:20.686Z,65.74
2019-05-11T07:19:15.391Z,68.09
2019-05-11T07:24:16.914Z,65.11
2019-05-11T07:29:18.438Z,60.78
2019-05-11T07:34:19.923Z,65.67
2019-05-11T07:39:21.446Z,59.17
2019-05-11T07:44:34.957Z,60.30
2019-05-11T07:49:26.314Z,62.31
2019-05-11T07:54:28.228Z,61.82
2019-05-11T07:59:29.974Z,55.99
2019-05-11T08:04:31.452Z,54.95
2019-05-11T08:09:32.931Z,63.23
2019-05-11T08:14:34.722Z,56.46
2019-05-11T08:19:38.399Z,57.82
2019-05-11T08:24:39.968Z,57.36
2019-05-11T08:29:41.487Z,53.63
2019-05-11T08:34:42.966Z,57.60
2019-05-11T08:39:44.550Z,50.24
2019-05-11T08:44:48.330Z,54.86
2019-05-11T08:49:49.814Z,54.12
2019-05-11T08:54:51.294Z,48.19
2019-05-11T08:59:52.868Z,48.53
2019-05-11T09:04:54.343Z,48.91
2019-05-11T09:09:58.556Z,49.07
2019-05-11T09:15:00.705Z,51.73
2019-05-11T09:20:04.687Z,44.88
2019-05-11T09:25:08.801Z,48.39
2019-05-11T09:30:11.657Z,45.54
2019-05-11T09:35:13.535Z,47.63
2019-05-11T09:40:18.068Z,49.87
2019-05-11T09:45:19.401Z,47.61
2019-05-11T09:50:20.906Z,45.93
2019-05-11T09:55:22.477Z,45.51
2019-05-11T10:00:24.757Z,43.09
2019-05-11T10:05:28.457Z,44.09
2019-05-11T10:10:30.047Z,45.23
2019-05-11T10:15:31.626Z,41.09
2019-05-11T10:20:33.203Z,39.64
2019-05-11T10:25:34.678Z,41.59
2019-05-11T10:30:38.595Z,45.38
2019-05-11T10:35:39.973Z,41.61
2019-05-11T10:40:41.647Z,43.75
2019-05-11T10:45:43.218Z,40.38
2019-05-11T10:50:44.702Z,41.47
2019-05-11T10:55:47.944Z,40.90
2019-05-11T11:00:49.692Z,40.75
2019-05-11T11:05:51.225Z,38.52
2019-05-11T11:10:52.687Z,39.46
2019-05-11T11:15:57.640Z,38.89
2019-05-11T11:20:58.751Z,40.14
2019-05-11T11:26:00.431Z,41.03
2019-05-11T11:31:02.181Z,42.50
2019-05-11T11:36:03.841Z,42.05
2019-05-11T11:41:07.471Z,45.45
2019-05-11T11:46:09.020Z,45.66
2019-05-11T11:51:10.498Z,46.28
2019-05-11T11:56:11.986Z,41.50
2019-05-11T12:01:13.491Z,40.07
2019-05-11T12:06:15.022Z,36.20
2019-05-11T12:11:18.767Z,42.82
2019-05-11T12:16:20.515Z,47.62
2019-05-11T12:21:21.984Z,36.27
2019-05-11T12:26:23.566Z,39.34
2019-05-11T12:31:25.047Z,39.44
2019-05-11T12:36:28.062Z,40.74
2019-05-11T12:41:29.763Z,41.86
2019-05-11T12:46:31.235Z,39.99
2019-05-11T12:51:32.719Z,41.84
2019-05-11T12:56:34.189Z,47.31
2019-05-11T13:01:37.919Z,38.26
2019-05-11T13:06:39.243Z,37.60
2019-05-11T13:11:40.777Z,36.97
2019-05-11T13:16:42.261Z,40.20
2019-05-11T13:21:43.735Z,39.33
2019-05-11T13:26:45.212Z,42.40
2019-05-11T13:31:48.620Z,42.70
2019-05-11T13:36:50.128Z,38.99
2019-05-11T13:41:51.603Z,40.48
2019-05-11T13:46:53.089Z,40.74
2019-05-11T13:51:54.559Z,38.16
2019-05-11T13:56:57.660Z,39.67
2019-05-11T14:01:59.495Z,38.47
2019-05-11T14:07:01.410Z,37.55
2019-05-11T14:12:04.300Z,37.43
2019-05-11T14:17:08.126Z,37.11
2019-05-11T14:22:09.353Z,41.37
2019-05-11T14:27:10.941Z,42.19
2019-05-11T14:32:12.404Z,39.20
2019-05-11T14:37:14.028Z,42.15
2019-05-11T14:42:15.577Z,38.46
2019-05-11T14:47:17.975Z,43.23
2019-05-11T14:52:19.646Z,38.14
2019-05-11T14:57:21.227Z,39.86
2019-05-11T15:02:41.011Z,39.68
2019-05-11T15:07:43.897Z,41.00
2019-05-11T15:12:45.424Z,40.56
2019-05-11T15:17:49.313Z,41.06
2019-05-11T15:22:50.311Z,42.40
2019-05-11T15:27:51.776Z,41.95
2019-05-11T15:32:53.252Z,40.73
2019-05-11T15:37:54.735Z,41.89
2019-05-11T15:42:58.346Z,40.99
2019-05-11T15:47:59.668Z,39.28
2019-05-11T15:53:01.123Z,39.65
2019-05-11T15:58:02.906Z,40.48
2019-05-11T16:03:04.679Z,39.28
2019-05-11T16:08:08.385Z,39.72
2019-05-11T16:13:10.088Z,40.59
2019-05-11T16:18:11.603Z,41.42
2019-05-11T16:23:13.483Z,41.88
2019-05-11T16:28:19.351Z,41.59
2019-05-11T16:33:20.583Z,40.88
2019-05-11T16:38:22.052Z,43.29
2019-05-11T16:43:23.520Z,43.84
2019-05-11T16:48:25.053Z,43.74
2019-05-11T16:53:28.506Z,44.27
2019-05-11T16:58:29.908Z,43.83
2019-05-11T17:03:31.515Z,44.52
2019-05-11T17:08:33.005Z,45.00
2019-05-11T17:13:53.286Z,45.26
2019-05-11T17:18:54.831Z,46.00
2019-05-11T17:23:57.972Z,46.40
2019-05-11T17:28:59.614Z,46.09
2019-05-11T17:34:01.096Z,45.66
2019-05-11T17:39:06.597Z,46.62
2019-05-11T17:44:08.296Z,47.29
2019-05-11T17:49:10.008Z,47.18
2019-05-11T17:54:11.592Z,47.24
2019-05-11T17:59:13.174Z,47.31
2019-05-11T18:04:14.686Z,47.72
2019-05-11T18:09:18.171Z,48.33
2019-05-11T18:14:19.559Z,48.31
2019-05-11T18:19:21.207Z,47.67
2019-05-11T18:24:22.688Z,48.70
2019-05-11T18:29:24.164Z,49.54
2019-05-11T18:34:25.651Z,49.99
2019-05-11T18:39:28.656Z,50.63
2019-05-11T18:44:30.334Z,51.23
2019-05-11T18:49:31.876Z,50.76
2019-05-11T18:54:33.459Z,51.07
2019-05-11T18:59:37.356Z,51.52
2019-05-11T19:04:38.730Z,51.56
2019-05-11T19:09:40.227Z,52.53
2019-05-11T19:14:41.750Z,53.17
2019-05-11T19:19:43.394Z,53.34
2019-05-11T19:24:44.915Z,53.12
2019-05-11T19:29:48.341Z,52.31
2019-05-11T19:34:50.874Z,52.61
2019-05-11T19:39:52.350Z,52.58
2019-05-11T19:44:53.831Z,52.98
2019-05-11T19:49:55.323Z,52.13
2019-05-11T19:54:57.770Z,52.93
2019-05-11T19:59:59.435Z,53.06
2019-05-11T20:05:00.953Z,53.19
2019-05-11T20:10:04.840Z,52.59
2019-05-11T20:15:08.224Z,52.84
2019-05-11T20:20:10.729Z,53.60
2019-05-11T20:25:12.961Z,53.92
2019-05-11T20:30:14.751Z,53.42
2019-05-11T20:35:16.531Z,53.80
2019-05-11T20:40:18.536Z,54.28
2019-05-11T20:45:20.395Z,55.23
2019-05-11T20:50:22.081Z,55.10
2019-05-11T20:55:23.608Z,55.52
2019-05-11T21:00:27.771Z,55.93
2019-05-11T21:05:28.911Z,55.73
2019-05-11T21:10:30.492Z,57.03
2019-05-11T21:15:32.071Z,56.08
2019-05-11T21:20:33.544Z,55.11
2019-05-11T21:25:35.285Z,55.75
2019-05-11T21:30:39.966Z,55.19
2019-05-11T21:35:41.631Z,56.09
2019-05-11T21:40:43.943Z,55.26
2019-05-11T21:45:45.428Z,57.02
2019-05-11T21:50:47.005Z,57.37
2019-05-11T21:55:48.525Z,57.73
2019-05-11T22:00:50.457Z,57.79
2019-05-11T22:05:53.878Z,57.68
2019-05-11T22:10:55.454Z,58.07
2019-05-11T22:15:58.060Z,58.31
2019-05-11T22:20:59.852Z,58.52
2019-05-11T22:26:01.356Z,59.10
2019-05-11T22:31:02.911Z,59.39
2019-05-11T22:36:04.491Z,59.79
2019-05-11T22:41:08.928Z,60.26
2019-05-11T22:46:09.640Z,60.44
2019-05-11T22:51:11.162Z,60.70
2019-05-11T22:56:12.635Z,61.28
2019-05-11T23:01:14.115Z,60.81
2019-05-11T23:06:17.906Z,61.21
2019-05-11T23:11:19.588Z,61.39
2019-05-11T23:16:21.050Z,61.69
2019-05-11T23:21:22.526Z,61.97
2019-05-11T23:26:24.001Z,62.35
2019-05-11T23:31:27.452Z,62.47
2019-05-11T23:36:28.969Z,62.63
2019-05-11T23:41:30.448Z,62.50
2019-05-11T23:46:33.161Z,62.55
2019-05-11T23:51:34.598Z,62.14
2019-05-11T23:56:38.299Z,61.63
